Time;durP1;ratioP1;P1;durP2;ratioP2;P2;SDS_P1;SDS_P2;PMS_P1;PMS_P2;Temp;Humidity;BMP_temperature;BMP_pressure;BME280_temperature;BME280_humidity;BME280_pressure;Samples;Min_cycle;Max_cycle;Signal;HPM_P1;HPM_P2
2023/01/27 00:00:14;;;;;;;14.20;9.98;;;;;;;-0.09;77.65;93966.50;5000734;28;20021;-84
2023/01/27 00:02:40;;;;;;;19.27;13.02;;;;;;;-0.30;77.55;93930.22;5014299;28;20041;-84
2023/01/27 00:05:06;;;;;;;20.02;13.02;;;;;;;-0.02;77.34;93975.50;5014359;28;20025;-83
2023/01/27 00:07:32;;;;;;;18.25;11.63;;;;;;;0.02;77.37;93960.00;4998012;28;20053;-84
2023/01/27 00:09:57;;;;;;;17.77;11.85;;;;;;;-0.26;77.96;93957.22;5017492;28;20060;-84
2023/01/27 00:15:09;;;;;;;16.52;10.50;;;;;;;-0.25;77.49;93910.38;5036988;28;20642;-84
2023/01/27 00:17:34;;;;;;;19.35;10.95;;;;;;;-0.04;77.45;93956.06;5017067;28;20116;-84
2023/01/27 00:20:00;;;;;;;21.85;11.52;;;;;;;-0.04;77.13;93956.06;5019546;28;20159;-82
2023/01/27 00:25:09;;;;;;;22.58;13.20;;;;;;;0.08;77.39;93941.78;5030313;28;20087;-84
2023/01/27 00:27:35;;;;;;;23.42;13.65;;;;;;;-0.13;77.42;93924.19;4998799;28;20291;-84
2023/01/27 00:30:03;;;;;;;25.35;14.10;;;;;;;-0.44;77.57;93876.56;5033859;28;20036;-84
2023/01/27 00:35:15;;;;;;;19.95;11.15;;;;;;;-0.29;77.32;93872.34;5036448;28;20157;-84
2023/01/27 00:37:41;;;;;;;22.38;12.25;;;;;;;0.04;77.65;93946.22;5045843;28;20029;-84
2023/01/27 00:40:07;;;;;;;17.50;10.60;;;;;;;-0.08;76.66;93919.66;5017403;28;20061;-84
2023/01/27 00:42:33;;;;;;;20.48;10.65;;;;;;;-0.31;77.01;93884.34;5018216;28;20037;-84
2023/01/27 00:47:42;;;;;;;16.20;10.13;;;;;;;0.06;77.08;93943.59;5032510;28;20548;-84
2023/01/27 00:50:08;;;;;;;15.88;8.75;;;;;;;-0.05;76.66;93934.81;5016774;28;20128;-82
2023/01/27 00:52:34;;;;;;;16.00;9.10;;;;;;;-0.03;77.11;93955.97;5050034;28;20112;-84
2023/01/27 00:54:59;;;;;;;21.70;12.35;;;;;;;0.02;77.00;93944.66;5031633;28;20423;-84
2023/01/27 00:57:25;;;;;;;26.90;14.38;;;;;;;-0.13;77.03;93931.03;5013518;28;20037;-84
2023/01/27 00:59:50;;;;;;;23.33;15.10;;;;;;;0.06;77.50;93958.94;5030340;28;20068;-84
2023/01/27 01:02:16;;;;;;;27.48;15.27;;;;;;;-0.11;77.33;93924.94;5030088;28;20025;-83
2023/01/27 01:04:41;;;;;;;21.50;12.77;;;;;;;-0.35;77.00;93888.00;5019069;28;20109;-83
2023/01/27 01:07:07;;;;;;;15.57;9.20;;;;;;;0.12;76.60;93941.53;5033237;28;20029;-84
2023/01/27 01:09:32;;;;;;;19.35;11.02;;;;;;;0.15;76.66;93936.25;5033086;28;20033;-84
2023/01/27 01:11:58;;;;;;;17.35;11.07;;;;;;;0.05;76.84;93931.72;5033198;28;20033;-83
2023/01/27 01:14:23;;;;;;;19.23;11.02;;;;;;;0.05;77.20;93932.53;5005424;28;20121;-83
2023/01/27 01:16:49;;;;;;;15.55;9.35;;;;;;;0.10;77.32;93930.56;5029427;28;20117;-83
2023/01/27 01:19:14;;;;;;;14.00;7.90;;;;;;;-0.27;77.63;93886.66;5029964;28;20087;-84
2023/01/27 01:21:40;;;;;;;14.57;8.00;;;;;;;0.02;77.69;93942.94;4997055;28;20021;-83
2023/01/27 01:24:05;;;;;;;17.13;9.25;;;;;;;-0.40;77.13;93870.38;5016454;28;20451;-83
2023/01/27 01:26:31;;;;;;;20.17;10.48;;;;;;;-0.19;77.73;93901.56;5013141;28;20078;-83
2023/01/27 01:28:56;;;;;;;16.42;10.00;;;;;;;0.04;77.34;93932.66;5015926;28;20473;-83
2023/01/27 01:31:22;;;;;;;16.73;10.88;;;;;;;0.02;77.75;93931.91;5033685;28;20472;-83
2023/01/27 01:33:47;;;;;;;17.77;11.45;;;;;;;0.07;77.59;93937.59;5033412;28;20077;-83
2023/01/27 01:36:17;;;;;;;19.73;13.48;;;;;;;0.01;77.33;93943.84;5000826;28;20091;-82
2023/01/27 01:38:43;;;;;;;14.30;9.63;;;;;;;0.07;76.72;93940.13;5017053;28;20563;-83
2023/01/27 01:41:11;;;;;;;14.25;8.18;;;;;;;0.16;77.26;93965.97;5016643;28;20109;-83
2023/01/27 01:43:37;;;;;;;10.18;6.82;;;;;;;0.12;77.11;93959.41;5017418;28;20033;-83
2023/01/27 01:46:03;;;;;;;14.05;8.30;;;;;;;-0.01;77.32;93958.44;5017551;28;20030;-82
2023/01/27 01:48:36;;;;;;;12.38;8.35;;;;;;;0.07;77.47;93946.06;5016545;28;20041;-84
2023/01/27 01:51:10;;;;;;;12.80;8.73;;;;;;;-0.01;77.34;93938.81;5029133;28;20411;-83
2023/01/27 01:54:00;;;;;;;12.02;7.68;;;;;;;-0.05;77.10;93909.28;5035987;28;20038;-84
2023/01/27 01:56:34;;;;;;;14.07;8.40;;;;;;;-0.23;76.46;93861.78;5038772;28;20068;-83
2023/01/27 01:59:02;;;;;;;12.38;7.88;;;;;;;0.15;76.62;93925.22;5034713;28;20040;-83
2023/01/27 02:01:27;;;;;;;12.38;7.53;;;;;;;-0.30;76.87;93842.63;5016916;28;20037;-83
2023/01/27 02:03:56;;;;;;;10.00;6.70;;;;;;;0.10;77.26;93904.19;5033046;28;20038;-84
2023/01/27 02:06:21;;;;;;;8.15;5.75;;;;;;;-0.25;76.53;93854.22;5016764;28;20030;-83
2023/01/27 02:08:46;;;;;;;13.30;9.10;;;;;;;-0.02;76.41;93870.78;5040293;28;20047;-83
2023/01/27 02:11:12;;;;;;;15.30;10.43;;;;;;;0.20;76.42;93890.00;5036392;28;20037;-83
2023/01/27 02:13:38;;;;;;;28.17;16.95;;;;;;;0.11;76.91;93885.41;5053154;28;20029;-84
2023/01/27 02:16:04;;;;;;;21.05;12.43;;;;;;;0.03;77.19;93877.34;5019944;28;20090;-83
2023/01/27 02:18:29;;;;;;;14.38;9.23;;;;;;;0.12;77.17;93887.06;5023523;28;20033;-83
2023/01/27 02:20:55;;;;;;;15.35;8.88;;;;;;;-0.06;77.31;93873.59;5000190;28;20514;-84
2023/01/27 02:23:23;;;;;;;14.20;8.75;;;;;;;-0.08;77.83;93881.34;4999862;28;20495;-83
2023/01/27 02:26:08;;;;;;;12.63;6.90;;;;;;;-0.10;78.17;93888.28;5034014;28;20052;-84
2023/01/27 02:28:34;;;;;;;11.98;7.60;;;;;;;-0.51;77.46;93812.28;5029290;28;20105;-83
2023/01/27 02:30:59;;;;;;;10.90;7.40;;;;;;;-0.31;77.31;93825.66;5016272;28;20060;-83
2023/01/27 02:33:25;;;;;;;12.30;7.75;;;;;;;-0.33;77.35;93837.69;4999603;28;20033;-83
2023/01/27 02:36:12;;;;;;;14.45;8.23;;;;;;;0.09;77.65;93872.75;5017937;28;20033;-84
2023/01/27 02:38:43;;;;;;;12.63;8.57;;;;;;;-0.08;77.46;93844.78;5032455;28;20040;-83
2023/01/27 02:41:13;;;;;;;12.43;8.35;;;;;;;-0.32;77.50;93801.03;5015152;28;20465;-83
2023/01/27 02:43:38;;;;;;;12.23;7.97;;;;;;;0.20;77.01;93890.00;5032615;28;20037;-84
2023/01/27 02:46:04;;;;;;;10.88;7.35;;;;;;;-0.17;77.44;93855.50;5031697;28;20033;-83
2023/01/27 02:48:29;;;;;;;10.98;6.95;;;;;;;-0.36;77.28;93837.84;5032285;28;20095;-84
2023/01/27 02:50:55;;;;;;;11.30;7.50;;;;;;;0.19;77.41;93903.69;5032389;28;20542;-84
2023/01/27 02:53:20;;;;;;;12.73;7.70;;;;;;;0.06;77.44;93877.22;5048853;28;20084;-83
2023/01/27 02:55:46;;;;;;;13.40;7.95;;;;;;;-0.18;77.14;93834.25;5051332;28;20068;-82
2023/01/27 02:58:14;;;;;;;11.20;7.10;;;;;;;-0.02;77.48;93855.47;5019346;28;20029;-84
2023/01/27 03:00:39;;;;;;;12.45;7.82;;;;;;;0.05;77.12;93853.38;5052455;28;20070;-83
2023/01/27 03:03:05;;;;;;;12.75;8.18;;;;;;;0.05;77.28;93875.53;5015505;28;20029;-83
2023/01/27 03:05:30;;;;;;;12.18;7.60;;;;;;;0.18;77.44;93887.53;5032149;28;20026;-83
2023/01/27 03:07:56;;;;;;;12.23;8.18;;;;;;;-0.18;77.27;93813.84;5020085;28;20037;-84
2023/01/27 03:10:21;;;;;;;13.70;7.85;;;;;;;-0.19;77.50;93830.09;5051984;28;20514;-84
2023/01/27 03:12:47;;;;;;;11.10;7.30;;;;;;;-0.22;77.61;93817.50;5031847;28;20033;-83
2023/01/27 03:18:14;;;;;;;12.32;8.15;;;;;;;-0.06;78.21;93823.34;5037982;28;20043;-83
2023/01/27 03:20:42;;;;;;;14.38;7.93;;;;;;;0.13;77.54;93830.78;5020695;28;20115;-81
2023/01/27 03:23:08;;;;;;;13.43;8.27;;;;;;;-0.10;77.39;93791.25;5027866;28;20037;-83
2023/01/27 03:25:33;;;;;;;14.50;8.50;;;;;;;0.30;77.58;93852.78;5032714;28;20502;-82
2023/01/27 03:27:59;;;;;;;14.02;9.18;;;;;;;0.12;77.49;93843.66;5034026;28;20086;-82
2023/01/27 03:30:26;;;;;;;16.80;11.00;;;;;;;-0.05;78.17;93827.56;5029666;28;20033;-81
2023/01/27 03:32:51;;;;;;;15.57;10.23;;;;;;;0.06;78.06;93841.44;5014478;28;20108;-82
2023/01/27 03:35:17;;;;;;;18.38;11.63;;;;;;;0.13;77.83;93819.75;4998464;28;20068;-82
2023/01/27 03:48:38;;;;;;;17.65;11.63;;;;;;;0.19;77.25;93817.63;5020444;28;20036;-82
2023/01/27 03:51:05;;;;;;;17.63;10.40;;;;;;;0.16;77.21;93822.13;5017228;28;20119;-81
2023/01/27 03:53:31;;;;;;;27.27;12.65;;;;;;;-0.22;77.74;93761.34;5034217;28;20033;-82
2023/01/27 03:55:57;;;;;;;22.10;11.02;;;;;;;-0.31;77.26;93749.06;5033955;28;20081;-81
2023/01/27 03:58:23;;;;;;;17.73;10.57;;;;;;;0.11;77.23;93808.78;5041492;28;20482;-82
2023/01/27 04:00:50;;;;;;;18.42;11.07;;;;;;;0.19;77.19;93822.75;5013959;28;20029;-82
2023/01/27 04:08:58;;;;;;;18.33;11.73;;;;;;;0.19;77.58;93870.47;5035767;28;20446;-83
2023/01/27 04:14:08;;;;;;;21.92;14.38;;;;;;;0.14;76.87;93886.06;5036178;28;20427;-83
2023/01/27 04:16:35;;;;;;;18.52;12.05;;;;;;;0.16;76.74;93879.13;5016959;28;20024;-83
2023/01/27 04:19:01;;;;;;;17.17;10.38;;;;;;;0.04;76.17;93853.47;5050552;28;20221;-82
2023/01/27 04:21:27;;;;;;;18.02;10.82;;;;;;;-0.02;76.79;93845.25;5017032;28;20036;-81
2023/01/27 04:23:52;;;;;;;19.98;11.60;;;;;;;0.25;76.09;93882.06;5017371;28;20437;-83
2023/01/27 04:26:18;;;;;;;18.73;12.25;;;;;;;0.21;76.39;93881.44;5033717;28;20086;-82
2023/01/27 04:28:43;;;;;;;15.02;10.43;;;;;;;0.30;76.91;93909.00;5033731;28;20503;-82
2023/01/27 04:31:10;;;;;;;18.20;11.85;;;;;;;0.22;76.47;93904.34;5017601;28;20048;-82
2023/01/27 04:33:36;;;;;;;16.92;10.43;;;;;;;0.32;75.83;93912.28;5050395;28;20384;-83
2023/01/27 04:36:01;;;;;;;18.10;11.13;;;;;;;0.34;75.29;93902.00;5033373;28;20025;-82
2023/01/27 04:38:27;;;;;;;16.13;9.50;;;;;;;0.27;75.95;93900.69;5016706;28;20487;-83
2023/01/27 04:40:52;;;;;;;14.75;9.20;;;;;;;0.14;75.63;93898.84;5015363;28;20029;-80
2023/01/27 04:43:18;;;;;;;17.45;10.65;;;;;;;-0.18;75.51;93841.09;4997370;28;20030;-82
2023/01/27 04:45:43;;;;;;;20.85;13.68;;;;;;;-0.13;75.89;93847.59;5029967;28;20026;-80
2023/01/27 04:48:09;;;;;;;18.13;11.23;;;;;;;0.36;75.40;93906.13;5013538;28;20040;-83
2023/01/27 04:50:34;;;;;;;15.77;10.35;;;;;;;0.35;75.03;93903.63;4997412;28;20065;-83
2023/01/27 04:53:00;;;;;;;16.67;10.98;;;;;;;-0.26;76.05;93846.63;5029902;28;20037;-82
2023/01/27 04:55:26;;;;;;;16.88;9.40;;;;;;;0.13;75.46;93896.38;5013382;28;20029;-83
2023/01/27 04:57:52;;;;;;;16.30;10.80;;;;;;;0.04;76.23;93904.56;5030183;28;20033;-82
2023/01/27 05:00:18;;;;;;;16.23;9.90;;;;;;;-0.34;76.67;93869.22;5013215;28;20034;-81
2023/01/27 05:02:43;;;;;;;18.48;12.27;;;;;;;-0.11;76.96;93888.34;5012773;28;20048;-82
2023/01/27 05:05:09;;;;;;;20.63;12.88;;;;;;;-0.30;77.28;93855.38;5013353;28;20029;-83
2023/01/27 05:07:34;;;;;;;19.15;12.13;;;;;;;0.10;77.23;93904.19;5013341;28;20534;-82
2023/01/27 05:10:00;;;;;;;20.95;13.60;;;;;;;-0.02;76.92;93893.78;5013313;28;20041;-82
2023/01/27 05:12:25;;;;;;;21.80;14.10;;;;;;;-0.06;77.00;93864.19;5013182;28;20037;-82
2023/01/27 05:14:51;;;;;;;19.65;11.77;;;;;;;0.14;76.76;93908.22;5013134;28;20063;-82
2023/01/27 05:17:16;;;;;;;19.67;12.68;;;;;;;0.06;77.35;93892.53;5013426;28;20048;-82
2023/01/27 05:19:42;;;;;;;22.23;14.60;;;;;;;-0.02;77.21;93877.63;5013309;28;20033;-82
2023/01/27 05:22:09;;;;;;;36.03;19.50;;;;;;;-0.22;77.47;93837.91;5013324;28;20040;-81
2023/01/27 05:24:37;;;;;;;87.78;37.30;;;;;;;-0.12;77.50;93833.09;5013294;28;20037;-82
2023/01/27 05:27:03;;;;;;;68.40;33.53;;;;;;;0.30;77.23;93890.28;5013572;28;20037;-82
2023/01/27 05:29:28;;;;;;;48.45;24.30;;;;;;;0.29;77.67;93888.66;4997018;28;20036;-82
2023/01/27 05:31:54;;;;;;;29.52;18.30;;;;;;;0.35;76.77;93889.13;5013256;28;20026;-82
2023/01/27 05:34:19;;;;;;;26.23;15.85;;;;;;;0.16;76.73;93874.03;4996788;28;20100;-81
2023/01/27 05:36:45;;;;;;;27.08;15.57;;;;;;;-0.15;77.40;93818.78;4996919;28;20124;-82
2023/01/27 05:39:10;;;;;;;24.67;16.05;;;;;;;-0.08;77.57;93822.63;5013117;28;20488;-82
2023/01/27 05:41:36;;;;;;;22.85;14.85;;;;;;;-0.09;76.73;93813.31;5037061;28;20021;-82
2023/01/27 05:44:01;;;;;;;20.98;14.00;;;;;;;0.07;77.08;93843.91;5049518;28;20065;-82
2023/01/27 05:46:28;;;;;;;17.70;11.93;;;;;;;0.21;77.25;93877.13;5016203;28;20029;-81
2023/01/27 05:48:55;;;;;;;20.45;12.95;;;;;;;0.15;77.12;93871.56;5016320;28;20047;-82
2023/01/27 05:51:22;;;;;;;24.20;15.43;;;;;;;-0.09;77.13;93833.72;5032933;28;20051;-82
2023/01/27 05:53:47;;;;;;;25.48;15.27;;;;;;;0.29;77.59;93899.69;5049608;28;20029;-82
2023/01/27 05:56:15;;;;;;;20.15;12.52;;;;;;;0.11;77.56;93876.03;5011853;28;20034;-82
2023/01/27 05:58:41;;;;;;;18.95;10.95;;;;;;;0.24;76.99;93908.53;5021834;28;20029;-82
2023/01/27 06:01:07;;;;;;;20.13;11.52;;;;;;;0.28;76.84;93905.72;5020975;28;20531;-80
2023/01/27 06:03:33;;;;;;;18.05;10.05;;;;;;;0.13;77.10;93869.09;5039727;28;20026;-82
2023/01/27 06:05:58;;;;;;;14.32;9.10;;;;;;;0.28;76.68;93887.00;5005765;28;20036;-82
2023/01/27 06:08:24;;;;;;;17.92;10.40;;;;;;;-0.18;76.82;93829.16;5041361;28;20414;-82
2023/01/27 06:10:50;;;;;;;14.80;9.38;;;;;;;0.27;77.15;93891.28;5019171;28;20040;-80
2023/01/27 06:13:16;;;;;;;14.73;9.63;;;;;;;0.25;77.03;93890.53;5007103;28;20068;-83
2023/01/27 06:15:44;;;;;;;17.80;9.50;;;;;;;-0.01;77.12;93835.84;5023482;28;20030;-82
2023/01/27 06:18:10;;;;;;;16.73;10.02;;;;;;;0.29;76.64;93888.66;5024425;28;20029;-83
2023/01/27 06:20:36;;;;;;;17.75;9.73;;;;;;;0.33;77.10;93896.03;5022443;28;20478;-83
2023/01/27 06:23:02;;;;;;;19.42;10.10;;;;;;;-0.15;77.02;93813.66;5026247;28;20120;-83
2023/01/27 06:25:28;;;;;;;18.23;11.10;;;;;;;0.29;77.37;93899.69;5026033;28;20076;-83
2023/01/27 06:27:56;;;;;;;17.00;9.95;;;;;;;0.19;76.99;93870.47;5023614;28;20593;-83
2023/01/27 06:30:22;;;;;;;18.60;10.05;;;;;;;-0.07;77.03;93820.88;5008378;28;20025;-82
2023/01/27 06:32:48;;;;;;;16.17;10.63;;;;;;;0.05;77.05;93829.56;5006464;28;20033;-83
2023/01/27 06:35:13;;;;;;;19.83;11.52;;;;;;;-0.03;76.43;93822.34;5023302;28;20107;-80
2023/01/27 06:37:39;;;;;;;22.55;12.07;;;;;;;0.35;76.93;93891.66;5039150;28;20021;-79
2023/01/27 06:40:05;;;;;;;21.45;11.55;;;;;;;0.33;76.61;93878.16;5032228;28;20041;-80
2023/01/27 06:42:30;;;;;;;19.20;11.30;;;;;;;0.20;76.89;93879.78;5015345;28;20033;-80
2023/01/27 06:44:56;;;;;;;17.38;10.32;;;;;;;0.28;76.23;93887.84;5041176;28;20080;-80
2023/01/27 06:47:21;;;;;;;17.95;11.05;;;;;;;0.34;76.32;93900.25;5023750;28;20573;-80
2023/01/27 06:49:47;;;;;;;18.52;10.55;;;;;;;0.29;76.97;93909.91;5041699;28;20458;-79
2023/01/27 06:52:12;;;;;;;17.55;11.15;;;;;;;0.48;76.37;93913.97;5014568;28;20053;-80
2023/01/27 06:54:38;;;;;;;19.42;10.90;;;;;;;0.53;75.80;93917.06;5035113;28;20039;-79
2023/01/27 06:57:03;;;;;;;19.00;11.38;;;;;;;0.29;76.66;93917.59;5040782;28;20545;-81
2023/01/27 06:59:29;;;;;;;24.05;13.65;;;;;;;0.19;76.85;93913.91;5043431;28;20654;-81
2023/01/27 07:01:54;;;;;;;35.30;19.67;;;;;;;0.34;77.13;93928.38;5047486;28;20029;-81
2023/01/27 07:04:20;;;;;;;25.48;15.45;;;;;;;0.21;76.66;93906.97;5012093;28;20775;-78
2023/01/27 07:06:46;;;;;;;26.55;15.55;;;;;;;0.10;76.93;93881.22;5025513;28;20037;-78
2023/01/27 07:09:11;;;;;;;28.75;15.63;;;;;;;0.37;76.42;93935.03;5047294;28;20041;-79
2023/01/27 07:11:38;;;;;;;30.48;15.75;;;;;;;0.36;76.86;93915.47;5051379;28;20060;-79
2023/01/27 07:14:03;;;;;;;22.35;13.75;;;;;;;0.41;76.91;93924.53;5017969;28;20056;-79
2023/01/27 07:16:29;;;;;;;20.20;10.68;;;;;;;0.46;76.35;93920.91;5001107;28;20053;-79
2023/01/27 07:18:54;;;;;;;17.30;10.70;;;;;;;0.14;76.82;93877.56;5022284;28;20037;-79
2023/01/27 07:21:20;;;;;;;16.58;10.00;;;;;;;0.27;76.63;93893.03;5026927;28;20026;-79
2023/01/27 07:23:45;;;;;;;17.20;11.25;;;;;;;0.56;75.82;93922.03;5031328;28;20092;-79
2023/01/27 07:26:11;;;;;;;16.55;9.38;;;;;;;0.27;76.56;93898.94;5014308;28;20060;-79
2023/01/27 07:28:36;;;;;;;14.77;8.98;;;;;;;0.18;76.17;93861.16;5015085;28;20032;-79
2023/01/27 07:31:02;;;;;;;12.77;8.65;;;;;;;0.60;75.70;93924.28;5042998;28;20037;-79
2023/01/27 07:33:27;;;;;;;14.98;8.73;;;;;;;0.35;75.52;93881.44;5044472;28;20054;-79
2023/01/27 07:35:54;;;;;;;13.63;9.13;;;;;;;0.47;75.18;93904.66;5025929;28;20044;-79
2023/01/27 07:38:19;;;;;;;13.73;9.45;;;;;;;0.50;74.91;93904.47;5051169;28;20025;-78
2023/01/27 07:40:45;;;;;;;15.35;10.18;;;;;;;0.68;75.04;93931.53;5023191;28;20055;-78
2023/01/27 07:43:10;;;;;;;18.25;10.82;;;;;;;0.58;75.00;93904.84;5055283;28;20031;-79
2023/01/27 07:45:36;;;;;;;19.17;12.98;;;;;;;0.30;75.33;93903.88;5007098;28;20026;-78
2023/01/27 07:48:02;;;;;;;21.92;13.15;;;;;;;0.53;75.67;93930.69;5039000;28;20037;-79
2023/01/27 07:50:28;;;;;;;24.00;16.08;;;;;;;0.59;75.42;93930.34;5007483;28;20481;-75
2023/01/27 07:52:53;;;;;;;16.42;9.48;;;;;;;0.51;75.48;93929.13;5017792;28;20056;-81
2023/01/27 07:55:19;;;;;;;16.80;10.40;;;;;;;0.51;74.98;93916.34;5037135;28;20120;-82
2023/01/27 07:57:44;;;;;;;14.27;9.35;;;;;;;0.62;74.71;93937.81;5024565;28;20039;-80
2023/01/27 08:00:14;;;;;;;13.35;8.68;;;;;;;0.26;74.33;93856.44;5007987;28;20022;-79
2023/01/27 08:02:40;;;;;;;14.65;9.43;;;;;;;0.49;74.56;93884.94;5022525;28;20032;-80
2023/01/27 08:05:06;;;;;;;14.20;8.15;;;;;;;0.68;74.88;93918.75;5023851;28;20033;-80
2023/01/27 08:07:31;;;;;;;14.18;9.25;;;;;;;0.60;74.43;93900.47;5024176;28;20025;-80
2023/01/27 08:09:57;;;;;;;15.57;9.68;;;;;;;0.30;74.17;93840.00;5039650;28;20071;-79
2023/01/27 08:12:22;;;;;;;15.20;10.30;;;;;;;0.44;73.99;93865.56;5021623;28;20075;-85
2023/01/27 08:14:48;;;;;;;22.88;13.27;;;;;;;0.27;74.21;93827.41;5021756;28;20048;-80
2023/01/27 08:17:13;;;;;;;22.45;13.35;;;;;;;0.71;73.56;93881.97;5028381;28;20029;-79
2023/01/27 08:19:39;;;;;;;24.38;12.48;;;;;;;0.57;73.67;93882.78;5020887;28;20041;-79
2023/01/27 08:22:04;;;;;;;18.13;11.18;;;;;;;0.74;74.01;93920.94;5040303;28;20510;-79
2023/01/27 08:24:30;;;;;;;17.35;9.90;;;;;;;0.24;74.21;93860.81;5045994;28;20388;-79
2023/01/27 08:26:55;;;;;;;16.30;10.18;;;;;;;0.63;75.03;93928.41;5016182;28;20115;-79
2023/01/27 08:29:21;;;;;;;19.48;10.88;;;;;;;0.53;75.02;93909.41;4997572;28;20346;-79
2023/01/27 08:31:46;;;;;;;25.30;14.70;;;;;;;0.69;75.63;93925.50;5013420;28;20140;-78
2023/01/27 08:34:12;;;;;;;26.45;18.27;;;;;;;0.42;75.47;93879.38;5012491;28;20034;-79
2023/01/27 08:36:40;;;;;;;52.88;34.80;;;;;;;0.53;75.39;93922.19;5012210;28;20388;-79
2023/01/27 08:39:06;;;;;;;45.28;25.83;;;;;;;0.60;75.95;93937.06;5012886;28;20714;-79
2023/01/27 08:41:31;;;;;;;45.90;24.13;;;;;;;0.59;76.15;93927.78;5012267;28;20033;-79
2023/01/27 08:43:57;;;;;;;37.20;19.90;;;;;;;0.20;76.33;93877.25;5028256;28;20418;-80
2023/01/27 08:46:22;;;;;;;30.67;17.17;;;;;;;0.56;75.89;93937.38;5047417;28;20025;-79
2023/01/27 08:48:50;;;;;;;24.85;15.85;;;;;;;0.41;77.11;93939.88;5038751;28;20040;-79
2023/01/27 08:51:16;;;;;;;20.67;13.77;;;;;;;0.41;76.46;93927.09;5007350;28;20445;-79
2023/01/27 08:53:41;;;;;;;16.50;9.57;;;;;;;0.60;75.68;93931.16;5017657;28;20104;-79
2023/01/27 08:56:10;;;;;;;15.80;10.38;;;;;;;0.41;75.67;93896.41;5012396;28;20060;-79
2023/01/27 08:58:35;;;;;;;15.15;9.55;;;;;;;0.57;75.18;93924.47;5012886;28;20328;-79
2023/01/27 09:01:02;;;;;;;16.63;10.48;;;;;;;0.54;75.51;93914.44;5012162;28;20095;-79
2023/01/27 09:03:28;;;;;;;21.65;15.27;;;;;;;0.43;75.34;93886.94;5012313;28;20029;-79
2023/01/27 09:05:54;;;;;;;12.98;8.88;;;;;;;0.33;74.95;93869.66;4995827;28;20033;-79
2023/01/27 09:08:19;;;;;;;19.92;11.25;;;;;;;0.38;74.65;93868.50;5028496;28;20025;-79
2023/01/27 09:10:45;;;;;;;20.00;11.88;;;;;;;0.50;75.22;93894.25;5011969;28;20037;-80
2023/01/27 09:13:10;;;;;;;15.15;10.63;;;;;;;0.61;73.81;93905.50;5032971;28;20028;-79
2023/01/27 09:15:36;;;;;;;14.18;9.65;;;;;;;0.37;74.11;93869.41;5030522;28;20506;-79
2023/01/27 09:18:02;;;;;;;17.77;12.48;;;;;;;0.49;73.07;93861.94;5016114;28;20084;-79
2023/01/27 09:20:28;;;;;;;22.50;15.90;;;;;;;0.77;73.02;93910.53;5031740;28;20036;-79
2023/01/27 09:22:54;;;;;;;23.63;18.50;;;;;;;0.63;73.17;93898.56;5010946;28;20110;-79
2023/01/27 09:25:19;;;;;;;17.77;12.57;;;;;;;0.33;73.48;93844.94;5027356;28;20412;-79
2023/01/27 09:27:45;;;;;;;14.70;9.75;;;;;;;0.73;73.32;93895.47;5048453;28;20108;-79
2023/01/27 09:30:11;;;;;;;14.93;9.88;;;;;;;0.55;73.35;93869.25;5015049;28;20040;-79
2023/01/27 09:32:37;;;;;;;17.38;10.55;;;;;;;0.79;73.18;93916.38;5031939;28;20021;-79
2023/01/27 09:35:03;;;;;;;17.55;11.02;;;;;;;0.87;73.51;93914.19;5015414;28;20067;-79
2023/01/27 09:37:28;;;;;;;23.88;14.13;;;;;;;0.51;73.56;93853.28;5031270;28;20025;-79
2023/01/27 09:39:55;;;;;;;24.63;12.63;;;;;;;0.70;73.95;93876.03;5026200;28;20044;-79
2023/01/27 09:42:58;;;;;;;22.15;14.27;;;;;;;0.92;74.19;93892.63;5025931;28;20029;-79
2023/01/27 09:45:55;;;;;;;21.10;14.25;;;;;;;0.89;74.15;93876.56;5037547;28;20041;-79
2023/01/27 09:48:38;;;;;;;28.08;18.52;;;;;;;0.52;74.59;93839.56;5013878;28;20099;-79
2023/01/27 09:51:22;;;;;;;26.67;18.40;;;;;;;0.81;74.62;93894.09;5038883;28;20040;-79
2023/01/27 09:54:17;;;;;;;32.10;18.25;;;;;;;0.85;74.77;93872.53;5033431;28;20041;-79
2023/01/27 09:57:03;;;;;;;27.85;17.13;;;;;;;0.87;74.39;93865.59;5046172;28;20115;-79
2023/01/27 09:59:59;;;;;;;23.88;14.85;;;;;;;0.82;75.11;93872.72;5039764;28;20029;-79
2023/01/27 10:02:37;;;;;;;32.50;21.70;;;;;;;0.87;74.47;93873.28;5004119;28;20029;-79
2023/01/27 10:05:08;;;;;;;25.33;16.77;;;;;;;0.84;73.79;93870.09;5031289;28;20494;-79
2023/01/27 10:07:59;;;;;;;15.25;10.13;;;;;;;0.82;73.62;93867.63;5021901;28;20029;-79
2023/01/27 10:10:45;;;;;;;17.60;12.23;;;;;;;0.86;73.73;93874.19;5040506;28;20037;-79
2023/01/27 10:13:23;;;;;;;13.90;9.98;;;;;;;0.93;73.82;93869.53;5042001;28;20036;-79
2023/01/27 10:15:49;;;;;;;11.75;7.70;;;;;;;0.98;73.10;93871.81;5032383;28;20496;-79
2023/01/27 10:18:33;;;;;;;14.20;9.68;;;;;;;0.94;73.18;93867.78;5040459;28;20043;-79
2023/01/27 10:21:20;;;;;;;13.98;8.77;;;;;;;0.84;73.33;93865.78;5038902;28;20057;-79
2023/01/27 10:23:55;;;;;;;10.80;7.55;;;;;;;0.76;73.48;93874.84;5041976;28;20087;-79
2023/01/27 10:26:21;;;;;;;11.90;8.43;;;;;;;0.88;73.03;93858.75;5035789;28;20132;-79
2023/01/27 10:28:50;;;;;;;14.38;9.20;;;;;;;0.92;73.53;93867.91;5040117;28;20051;-79
2023/01/27 10:31:25;;;;;;;15.25;10.43;;;;;;;0.89;73.18;93863.78;5011572;28;20051;-79
2023/01/27 10:33:52;;;;;;;17.83;11.10;;;;;;;0.47;73.78;93818.56;5042230;28;20491;-79
2023/01/27 10:36:28;;;;;;;17.52;10.07;;;;;;;0.22;73.71;93801.31;5023933;28;20032;-79
2023/01/27 10:39:22;;;;;;;14.82;8.88;;;;;;;0.70;74.02;93870.91;5014575;28;20171;-79
2023/01/27 10:42:27;;;;;;;93.78;34.90;;;;;;;0.36;74.45;93803.91;5048210;28;20490;-80
2023/01/27 10:45:22;;;;;;;27.63;15.60;;;;;;;0.64;74.10;93845.69;5033798;28;20129;-79
2023/01/27 10:48:00;;;;;;;20.95;11.77;;;;;;;0.68;74.73;93857.38;5026187;28;20557;-79
2023/01/27 10:50:41;;;;;;;15.10;9.93;;;;;;;0.28;74.57;93803.53;5010064;28;20033;-79
2023/01/27 10:53:20;;;;;;;17.40;11.23;;;;;;;0.53;74.77;93866.78;5026831;28;20041;-79
2023/01/27 10:55:52;;;;;;;17.92;10.63;;;;;;;0.29;75.64;93840.94;5034885;28;20035;-80
2023/01/27 10:58:38;;;;;;;14.75;10.25;;;;;;;0.56;74.98;93863.25;5035431;28;20320;-81
2023/01/27 11:01:06;;;;;;;13.48;9.82;;;;;;;0.55;74.68;93852.16;5034181;28;20044;-81
2023/01/27 11:03:39;;;;;;;12.38;8.00;;;;;;;0.54;75.43;93854.84;5023176;28;20404;-80
2023/01/27 11:06:16;;;;;;;15.40;10.45;;;;;;;0.53;75.07;93855.72;5020794;28;20399;-80
2023/01/27 11:08:44;;;;;;;20.65;13.55;;;;;;;0.53;74.92;93850.63;5026866;28;20648;-81
2023/01/27 11:14:02;;;;;;;33.60;22.67;;;;;;;-0.14;75.34;93756.59;5041355;28;20064;-78
2023/01/27 11:16:31;;;;;;;30.08;19.10;;;;;;;0.08;75.40;93758.69;5046109;28;20017;-82
2023/01/27 11:18:59;;;;;;;21.65;14.55;;;;;;;0.32;75.36;93791.38;5027508;28;20040;-81
2023/01/27 11:21:26;;;;;;;17.17;12.82;;;;;;;0.25;75.82;93801.13;5029009;28;20314;-79
2023/01/27 11:23:54;;;;;;;22.48;14.60;;;;;;;0.54;76.44;93842.88;5027774;28;20045;-81
2023/01/27 11:26:40;;;;;;;23.38;16.83;;;;;;;0.58;75.99;93812.84;5013176;28;20106;-82
2023/01/27 11:29:43;;;;;;;19.38;13.07;;;;;;;0.61;76.13;93833.94;5029264;28;20575;-83
2023/01/27 11:32:42;;;;;;;22.55;16.90;;;;;;;0.70;75.06;93841.94;5043912;28;20524;-80
2023/01/27 11:35:09;;;;;;;27.85;20.45;;;;;;;0.27;75.46;93773.78;5046452;28;20057;-79
2023/01/27 11:37:45;;;;;;;27.23;19.08;;;;;;;0.34;75.97;93769.94;5020944;28;20499;-79
2023/01/27 11:40:22;;;;;;;25.45;16.77;;;;;;;0.86;74.94;93845.22;5013387;28;20033;-80
2023/01/27 11:42:48;;;;;;;41.40;30.70;;;;;;;0.49;75.23;93788.66;5029930;28;20108;-79
2023/01/27 11:45:14;;;;;;;19.20;14.00;;;;;;;0.23;75.06;93762.09;5013458;28;20022;-80
2023/01/27 11:47:40;;;;;;;27.20;20.52;;;;;;;0.85;74.41;93830.81;5029664;28;20392;-79
2023/01/27 11:50:06;;;;;;;26.58;19.45;;;;;;;0.76;74.83;93821.97;5029465;28;20052;-82
2023/01/27 11:52:32;;;;;;;22.27;15.10;;;;;;;0.71;75.03;93826.53;4998094;28;20033;-82
2023/01/27 11:55:13;;;;;;;28.73;21.08;;;;;;;0.80;74.72;93828.53;5014164;28;20537;-79
2023/01/27 11:57:44;;;;;;;21.77;14.85;;;;;;;0.38;74.31;93750.13;5014105;28;20043;-79
2023/01/27 12:00:24;;;;;;;18.27;11.65;;;;;;;0.80;74.75;93820.84;4996973;28;20041;-79
2023/01/27 12:03:00;;;;;;;15.02;11.25;;;;;;;0.48;74.09;93761.47;5014042;28;20029;-79
2023/01/27 12:05:35;;;;;;;19.08;13.02;;;;;;;0.92;73.75;93826.97;5014692;28;20041;-79
2023/01/27 12:08:03;;;;;;;27.42;21.95;;;;;;;0.80;74.03;93828.53;4997455;28;20148;-79